sensor_id;sensor_type;location;lat;lon;timestamp;temperature;humidity
20546;DHT22;10431;50.228;9.112;2023-04-25T00:00:30;18.80;86.30
20546;DHT22;10431;50.228;9.112;2023-04-25T00:02:56;18.80;86.20
20546;DHT22;10431;50.228;9.112;2023-04-25T00:05:23;18.80;86.20
20546;DHT22;10431;50.228;9.112;2023-04-25T00:07:50;18.80;86.30
20546;DHT22;10431;50.228;9.112;2023-04-25T00:10:16;18.80;86.20
20546;DHT22;10431;50.228;9.112;2023-04-25T00:12:42;18.80;86.30
20546;DHT22;10431;50.228;9.112;2023-04-25T00:15:09;18.80;86.20
20546;DHT22;10431;50.228;9.112;2023-04-25T00:17:35;18.80;86.30
20546;DHT22;10431;50.228;9.112;2023-04-25T00:20:02;18.80;86.30
20546;DHT22;10431;50.228;9.112;2023-04-25T00:22:31;18.80;86.30
20546;DHT22;10431;50.228;9.112;2023-04-25T00:24:57;18.80;86.30
20546;DHT22;10431;50.228;9.112;2023-04-25T00:27:26;18.80;86.30
20546;DHT22;10431;50.228;9.112;2023-04-25T00:29:52;18.80;86.20
20546;DHT22;10431;50.228;9.112;2023-04-25T00:32:18;18.80;86.20
20546;DHT22;10431;50.228;9.112;2023-04-25T00:34:45;18.80;86.20
20546;DHT22;10431;50.228;9.112;2023-04-25T00:37:11;18.80;86.20
20546;DHT22;10431;50.228;9.112;2023-04-25T00:39:38;18.80;86.20
20546;DHT22;10431;50.228;9.112;2023-04-25T00:42:05;18.80;86.20
20546;DHT22;10431;50.228;9.112;2023-04-25T00:44:31;18.80;86.20
20546;DHT22;10431;50.228;9.112;2023-04-25T00:46:58;18.80;86.20
20546;DHT22;10431;50.228;9.112;2023-04-25T00:49:25;18.80;86.20
20546;DHT22;10431;50.228;9.112;2023-04-25T00:51:51;18.80;86.20
20546;DHT22;10431;50.228;9.112;2023-04-25T00:54:17;18.80;86.20
20546;DHT22;10431;50.228;9.112;2023-04-25T00:56:45;18.70;86.10
20546;DHT22;10431;50.228;9.112;2023-04-25T00:59:11;18.70;86.10
20546;DHT22;10431;50.228;9.112;2023-04-25T01:01:39;18.70;86.10
20546;DHT22;10431;50.228;9.112;2023-04-25T01:04:05;18.70;86.10
20546;DHT22;10431;50.228;9.112;2023-04-25T01:06:31;18.70;86.10
20546;DHT22;10431;50.228;9.112;2023-04-25T01:08:58;18.70;86.10
20546;DHT22;10431;50.228;9.112;2023-04-25T01:11:25;18.70;86.00
20546;DHT22;10431;50.228;9.112;2023-04-25T01:13:51;18.70;86.10
20546;DHT22;10431;50.228;9.112;2023-04-25T01:16:17;18.70;86.10
20546;DHT22;10431;50.228;9.112;2023-04-25T01:18:45;18.70;86.10
20546;DHT22;10431;50.228;9.112;2023-04-25T01:21:12;18.70;86.10
20546;DHT22;10431;50.228;9.112;2023-04-25T01:23:40;18.70;86.10
20546;DHT22;10431;50.228;9.112;2023-04-25T01:26:09;18.70;86.10
20546;DHT22;10431;50.228;9.112;2023-04-25T01:28:37;18.70;86.10
20546;DHT22;10431;50.228;9.112;2023-04-25T01:31:05;18.70;86.10
20546;DHT22;10431;50.228;9.112;2023-04-25T01:33:31;18.70;86.10
20546;DHT22;10431;50.228;9.112;2023-04-25T01:35:58;18.70;86.00
20546;DHT22;10431;50.228;9.112;2023-04-25T01:38:24;18.70;86.10
20546;DHT22;10431;50.228;9.112;2023-04-25T01:40:51;18.70;86.00
20546;DHT22;10431;50.228;9.112;2023-04-25T01:43:19;18.70;86.10
20546;DHT22;10431;50.228;9.112;2023-04-25T01:45:45;18.70;86.00
20546;DHT22;10431;50.228;9.112;2023-04-25T01:48:13;18.70;86.10
20546;DHT22;10431;50.228;9.112;2023-04-25T01:50:41;18.70;86.10
20546;DHT22;10431;50.228;9.112;2023-04-25T01:53:09;18.70;86.00
20546;DHT22;10431;50.228;9.112;2023-04-25T01:55:35;18.60;86.00
20546;DHT22;10431;50.228;9.112;2023-04-25T01:58:08;18.70;86.00
20546;DHT22;10431;50.228;9.112;2023-04-25T02:01:07;18.60;85.90
20546;DHT22;10431;50.228;9.112;2023-04-25T02:03:41;18.70;86.10
20546;DHT22;10431;50.228;9.112;2023-04-25T02:06:14;18.70;86.10
20546;DHT22;10431;50.228;9.112;2023-04-25T02:08:43;18.70;86.10
20546;DHT22;10431;50.228;9.112;2023-04-25T02:11:11;18.60;85.90
20546;DHT22;10431;50.228;9.112;2023-04-25T02:13:43;18.60;86.00
20546;DHT22;10431;50.228;9.112;2023-04-25T02:16:24;18.60;86.10
20546;DHT22;10431;50.228;9.112;2023-04-25T02:18:51;18.60;85.90
20546;DHT22;10431;50.228;9.112;2023-04-25T02:21:19;18.60;86.70
20546;DHT22;10431;50.228;9.112;2023-04-25T02:23:45;18.60;85.90
20546;DHT22;10431;50.228;9.112;2023-04-25T02:26:14;18.70;86.00
20546;DHT22;10431;50.228;9.112;2023-04-25T02:28:41;18.60;86.00
20546;DHT22;10431;50.228;9.112;2023-04-25T02:31:07;18.60;86.00
20546;DHT22;10431;50.228;9.112;2023-04-25T02:33:33;18.60;85.90
20546;DHT22;10431;50.228;9.112;2023-04-25T02:36:00;18.60;85.90
20546;DHT22;10431;50.228;9.112;2023-04-25T02:38:26;18.60;85.90
20546;DHT22;10431;50.228;9.112;2023-04-25T02:40:52;18.60;85.90
20546;DHT22;10431;50.228;9.112;2023-04-25T02:43:18;18.60;85.90
20546;DHT22;10431;50.228;9.112;2023-04-25T02:45:45;18.60;85.90
20546;DHT22;10431;50.228;9.112;2023-04-25T02:48:11;18.60;85.90
20546;DHT22;10431;50.228;9.112;2023-04-25T02:50:37;18.60;85.90
20546;DHT22;10431;50.228;9.112;2023-04-25T02:53:04;18.60;85.90
20546;DHT22;10431;50.228;9.112;2023-04-25T02:55:36;18.60;86.00
20546;DHT22;10431;50.228;9.112;2023-04-25T02:58:04;18.60;85.80
20546;DHT22;10431;50.228;9.112;2023-04-25T03:00:39;18.60;85.90
20546;DHT22;10431;50.228;9.112;2023-04-25T03:03:06;18.60;85.90
20546;DHT22;10431;50.228;9.112;2023-04-25T03:05:32;18.60;85.90
20546;DHT22;10431;50.228;9.112;2023-04-25T03:07:58;18.60;85.90
20546;DHT22;10431;50.228;9.112;2023-04-25T03:10:26;18.60;85.90
20546;DHT22;10431;50.228;9.112;2023-04-25T03:12:53;18.60;85.90
20546;DHT22;10431;50.228;9.112;2023-04-25T03:15:19;18.60;85.90
20546;DHT22;10431;50.228;9.112;2023-04-25T03:17:46;18.60;85.90
20546;DHT22;10431;50.228;9.112;2023-04-25T03:20:12;18.60;85.90
20546;DHT22;10431;50.228;9.112;2023-04-25T03:22:38;18.60;85.80
20546;DHT22;10431;50.228;9.112;2023-04-25T03:25:05;18.60;85.80
20546;DHT22;10431;50.228;9.112;2023-04-25T03:27:31;18.60;85.80
20546;DHT22;10431;50.228;9.112;2023-04-25T03:29:57;18.60;85.90
20546;DHT22;10431;50.228;9.112;2023-04-25T03:32:24;18.60;85.80
20546;DHT22;10431;50.228;9.112;2023-04-25T03:34:51;18.60;85.80
20546;DHT22;10431;50.228;9.112;2023-04-25T03:37:17;18.60;85.80
20546;DHT22;10431;50.228;9.112;2023-04-25T03:39:43;18.60;85.80
20546;DHT22;10431;50.228;9.112;2023-04-25T03:42:10;18.50;86.50
20546;DHT22;10431;50.228;9.112;2023-04-25T03:44:36;18.50;85.80
20546;DHT22;10431;50.228;9.112;2023-04-25T03:47:03;18.60;85.80
20546;DHT22;10431;50.228;9.112;2023-04-25T03:49:29;18.50;85.80
20546;DHT22;10431;50.228;9.112;2023-04-25T03:52:01;18.50;85.80
20546;DHT22;10431;50.228;9.112;2023-04-25T03:54:33;18.50;85.70
20546;DHT22;10431;50.228;9.112;2023-04-25T03:57:04;18.50;85.70
20546;DHT22;10431;50.228;9.112;2023-04-25T03:59:33;18.50;85.70
20546;DHT22;10431;50.228;9.112;2023-04-25T04:02:00;18.50;85.70
20546;DHT22;10431;50.228;9.112;2023-04-25T04:04:27;18.50;85.70
20546;DHT22;10431;50.228;9.112;2023-04-25T04:06:53;18.50;85.70
20546;DHT22;10431;50.228;9.112;2023-04-25T04:09:24;18.50;85.80
20546;DHT22;10431;50.228;9.112;2023-04-25T04:11:51;18.50;85.80
20546;DHT22;10431;50.228;9.112;2023-04-25T04:14:17;18.50;85.70
20546;DHT22;10431;50.228;9.112;2023-04-25T04:16:45;18.50;85.80
20546;DHT22;10431;50.228;9.112;2023-04-25T04:19:11;18.50;85.80
20546;DHT22;10431;50.228;9.112;2023-04-25T04:21:42;18.50;85.70
20546;DHT22;10431;50.228;9.112;2023-04-25T04:24:09;18.50;85.70
20546;DHT22;10431;50.228;9.112;2023-04-25T04:26:47;18.50;85.80
20546;DHT22;10431;50.228;9.112;2023-04-25T04:29:32;18.50;85.80
20546;DHT22;10431;50.228;9.112;2023-04-25T04:32:08;18.50;85.70
20546;DHT22;10431;50.228;9.112;2023-04-25T04:34:36;18.50;85.70
20546;DHT22;10431;50.228;9.112;2023-04-25T04:37:02;18.50;85.70
20546;DHT22;10431;50.228;9.112;2023-04-25T04:39:29;18.50;85.70
20546;DHT22;10431;50.228;9.112;2023-04-25T04:42:06;18.50;85.60
20546;DHT22;10431;50.228;9.112;2023-04-25T04:45:02;18.50;85.50
20546;DHT22;10431;50.228;9.112;2023-04-25T04:48:06;18.50;85.50
20546;DHT22;10431;50.228;9.112;2023-04-25T04:50:55;18.50;85.50
20546;DHT22;10431;50.228;9.112;2023-04-25T04:53:39;18.50;85.50
20546;DHT22;10431;50.228;9.112;2023-04-25T04:56:17;18.50;84.50
20546;DHT22;10431;50.228;9.112;2023-04-25T04:59:15;18.60;83.60
20546;DHT22;10431;50.228;9.112;2023-04-25T05:02:03;18.80;83.00
20546;DHT22;10431;50.228;9.112;2023-04-25T05:04:51;18.90;82.50
20546;DHT22;10431;50.228;9.112;2023-04-25T05:07:30;19.00;82.00
20546;DHT22;10431;50.228;9.112;2023-04-25T05:10:04;19.00;81.80
20546;DHT22;10431;50.228;9.112;2023-04-25T05:13:00;19.10;81.60
20546;DHT22;10431;50.228;9.112;2023-04-25T05:15:29;19.10;81.40
20546;DHT22;10431;50.228;9.112;2023-04-25T05:18:14;19.10;81.20
20546;DHT22;10431;50.228;9.112;2023-04-25T05:20:57;18.90;80.90
20546;DHT22;10431;50.228;9.112;2023-04-25T05:23:36;17.20;76.20
20546;DHT22;10431;50.228;9.112;2023-04-25T05:26:21;17.00;78.00
20546;DHT22;10431;50.228;9.112;2023-04-25T05:29:07;16.70;78.30
20546;DHT22;10431;50.228;9.112;2023-04-25T05:31:42;16.00;78.50
20546;DHT22;10431;50.228;9.112;2023-04-25T05:34:14;15.40;80.40
20546;DHT22;10431;50.228;9.112;2023-04-25T05:36:58;15.80;81.90
20546;DHT22;10431;50.228;9.112;2023-04-25T05:39:25;16.60;80.70
20546;DHT22;10431;50.228;9.112;2023-04-25T05:42:01;17.30;78.70
20546;DHT22;10431;50.228;9.112;2023-04-25T05:44:59;17.90;77.70
20546;DHT22;10431;50.228;9.112;2023-04-25T05:47:52;18.30;77.00
20546;DHT22;10431;50.228;9.112;2023-04-25T05:50:57;18.60;76.60
20546;DHT22;10431;50.228;9.112;2023-04-25T05:53:38;18.80;76.40
20546;DHT22;10431;50.228;9.112;2023-04-25T05:56:06;18.90;76.40
20546;DHT22;10431;50.228;9.112;2023-04-25T05:58:32;18.90;76.50
20546;DHT22;10431;50.228;9.112;2023-04-25T06:00:59;19.10;76.20
20546;DHT22;10431;50.228;9.112;2023-04-25T06:03:26;19.30;76.00
20546;DHT22;10431;50.228;9.112;2023-04-25T06:05:52;19.50;75.70
20546;DHT22;10431;50.228;9.112;2023-04-25T06:08:19;19.70;75.40
20546;DHT22;10431;50.228;9.112;2023-04-25T06:10:45;19.80;75.50
20546;DHT22;10431;50.228;9.112;2023-04-25T06:13:12;19.80;75.30
20546;DHT22;10431;50.228;9.112;2023-04-25T06:15:38;19.90;75.10
20546;DHT22;10431;50.228;9.112;2023-04-25T06:18:05;19.90;75.00
20546;DHT22;10431;50.228;9.112;2023-04-25T06:20:31;19.90;75.20
20546;DHT22;10431;50.228;9.112;2023-04-25T06:22:59;20.00;75.40
20546;DHT22;10431;50.228;9.112;2023-04-25T06:25:35;20.00;75.60
20546;DHT22;10431;50.228;9.112;2023-04-25T06:28:02;20.00;75.90
20546;DHT22;10431;50.228;9.112;2023-04-25T06:30:29;19.90;75.90
20546;DHT22;10431;50.228;9.112;2023-04-25T06:33:01;19.80;75.60
20546;DHT22;10431;50.228;9.112;2023-04-25T06:35:29;19.90;76.00
20546;DHT22;10431;50.228;9.112;2023-04-25T06:37:55;19.90;76.00
20546;DHT22;10431;50.228;9.112;2023-04-25T06:40:23;19.90;76.30
20546;DHT22;10431;50.228;9.112;2023-04-25T06:42:49;20.00;76.70
20546;DHT22;10431;50.228;9.112;2023-04-25T06:45:51;20.00;77.10
20546;DHT22;10431;50.228;9.112;2023-04-25T06:48:17;19.90;77.40
20546;DHT22;10431;50.228;9.112;2023-04-25T06:50:43;19.80;77.90
20546;DHT22;10431;50.228;9.112;2023-04-25T06:53:11;19.90;78.10
20546;DHT22;10431;50.228;9.112;2023-04-25T06:55:38;19.90;78.50
20546;DHT22;10431;50.228;9.112;2023-04-25T06:58:18;19.80;78.60
20546;DHT22;10431;50.228;9.112;2023-04-25T07:01:07;19.80;79.00
20546;DHT22;10431;50.228;9.112;2023-04-25T07:03:34;19.80;79.20
20546;DHT22;10431;50.228;9.112;2023-04-25T07:06:06;19.70;79.50
20546;DHT22;10431;50.228;9.112;2023-04-25T07:08:32;19.70;79.80
20546;DHT22;10431;50.228;9.112;2023-04-25T07:10:59;19.70;80.70
20546;DHT22;10431;50.228;9.112;2023-04-25T07:13:25;19.60;80.10
20546;DHT22;10431;50.228;9.112;2023-04-25T07:15:51;19.50;80.20
20546;DHT22;10431;50.228;9.112;2023-04-25T07:18:20;19.50;80.40
20546;DHT22;10431;50.228;9.112;2023-04-25T07:20:46;19.50;80.60
20546;DHT22;10431;50.228;9.112;2023-04-25T07:23:13;19.40;80.70
20546;DHT22;10431;50.228;9.112;2023-04-25T07:25:39;19.40;80.80
20546;DHT22;10431;50.228;9.112;2023-04-25T07:28:06;19.40;80.80
20546;DHT22;10431;50.228;9.112;2023-04-25T07:30:32;19.40;80.80
20546;DHT22;10431;50.228;9.112;2023-04-25T07:33:03;19.40;80.80
20546;DHT22;10431;50.228;9.112;2023-04-25T07:35:29;19.40;81.20
20546;DHT22;10431;50.228;9.112;2023-04-25T07:37:55;19.40;81.30
20546;DHT22;10431;50.228;9.112;2023-04-25T07:40:23;19.40;81.40
20546;DHT22;10431;50.228;9.112;2023-04-25T07:42:54;19.50;81.60
20546;DHT22;10431;50.228;9.112;2023-04-25T07:45:32;19.40;81.50
20546;DHT22;10431;50.228;9.112;2023-04-25T07:47:58;19.40;81.60
20546;DHT22;10431;50.228;9.112;2023-04-25T07:50:25;19.30;81.50
20546;DHT22;10431;50.228;9.112;2023-04-25T07:52:52;19.40;81.60
20546;DHT22;10431;50.228;9.112;2023-04-25T07:55:25;19.30;81.60
20546;DHT22;10431;50.228;9.112;2023-04-25T07:58:00;19.40;81.60
20546;DHT22;10431;50.228;9.112;2023-04-25T08:00:29;19.40;81.40
20546;DHT22;10431;50.228;9.112;2023-04-25T08:03:14;19.40;81.60
20546;DHT22;10431;50.228;9.112;2023-04-25T08:05:41;19.50;81.60
20546;DHT22;10431;50.228;9.112;2023-04-25T08:08:08;19.50;81.80
20546;DHT22;10431;50.228;9.112;2023-04-25T08:10:34;19.60;82.30
20546;DHT22;10431;50.228;9.112;2023-04-25T08:13:00;19.60;82.50
20546;DHT22;10431;50.228;9.112;2023-04-25T08:15:27;19.70;82.80
20546;DHT22;10431;50.228;9.112;2023-04-25T08:17:53;19.70;82.80
20546;DHT22;10431;50.228;9.112;2023-04-25T08:20:20;19.70;83.20
20546;DHT22;10431;50.228;9.112;2023-04-25T08:22:46;19.70;83.20
20546;DHT22;10431;50.228;9.112;2023-04-25T08:25:30;19.60;82.50
20546;DHT22;10431;50.228;9.112;2023-04-25T08:27:56;19.20;79.00
20546;DHT22;10431;50.228;9.112;2023-04-25T08:30:23;18.70;74.60
20546;DHT22;10431;50.228;9.112;2023-04-25T08:32:50;18.40;74.10
20546;DHT22;10431;50.228;9.112;2023-04-25T08:35:33;18.50;75.70
20546;DHT22;10431;50.228;9.112;2023-04-25T08:38:00;18.70;76.30
20546;DHT22;10431;50.228;9.112;2023-04-25T08:40:28;18.80;75.30
20546;DHT22;10431;50.228;9.112;2023-04-25T08:43:19;18.90;75.30
20546;DHT22;10431;50.228;9.112;2023-04-25T08:45:46;19.00;75.10
20546;DHT22;10431;50.228;9.112;2023-04-25T08:48:32;19.00;75.10
20546;DHT22;10431;50.228;9.112;2023-04-25T08:51:03;19.00;75.50
20546;DHT22;10431;50.228;9.112;2023-04-25T08:53:32;18.90;76.20
20546;DHT22;10431;50.228;9.112;2023-04-25T08:56:01;18.70;74.10
20546;DHT22;10431;50.228;9.112;2023-04-25T08:58:28;18.20;71.90
20546;DHT22;10431;50.228;9.112;2023-04-25T09:00:54;18.00;72.50
20546;DHT22;10431;50.228;9.112;2023-04-25T09:03:24;18.30;74.60
20546;DHT22;10431;50.228;9.112;2023-04-25T09:05:51;18.60;72.60
20546;DHT22;10431;50.228;9.112;2023-04-25T09:08:17;18.90;71.80
20546;DHT22;10431;50.228;9.112;2023-04-25T09:10:43;19.20;71.70
20546;DHT22;10431;50.228;9.112;2023-04-25T09:13:12;19.50;71.50
20546;DHT22;10431;50.228;9.112;2023-04-25T09:16:03;19.60;72.00
20546;DHT22;10431;50.228;9.112;2023-04-25T09:18:40;19.60;71.30
20546;DHT22;10431;50.228;9.112;2023-04-25T09:21:11;19.80;71.80
20546;DHT22;10431;50.228;9.112;2023-04-25T09:23:46;19.90;72.40
20546;DHT22;10431;50.228;9.112;2023-04-25T09:26:17;19.90;72.90
20546;DHT22;10431;50.228;9.112;2023-04-25T09:28:45;19.90;73.50
20546;DHT22;10431;50.228;9.112;2023-04-25T09:31:24;19.90;74.10
20546;DHT22;10431;50.228;9.112;2023-04-25T09:33:59;19.80;74.50
20546;DHT22;10431;50.228;9.112;2023-04-25T09:36:27;19.80;74.90
20546;DHT22;10431;50.228;9.112;2023-04-25T09:39:17;19.70;75.30
20546;DHT22;10431;50.228;9.112;2023-04-25T09:41:55;19.70;75.60
20546;DHT22;10431;50.228;9.112;2023-04-25T09:44:25;19.70;75.60
20546;DHT22;10431;50.228;9.112;2023-04-25T09:46:52;19.70;75.80
20546;DHT22;10431;50.228;9.112;2023-04-25T09:49:23;19.70;76.10
20546;DHT22;10431;50.228;9.112;2023-04-25T09:52:00;19.70;76.20
20546;DHT22;10431;50.228;9.112;2023-04-25T09:54:36;19.70;76.30
20546;DHT22;10431;50.228;9.112;2023-04-25T09:57:18;19.70;76.30
20546;DHT22;10431;50.228;9.112;2023-04-25T09:59:47;19.70;76.50
20546;DHT22;10431;50.228;9.112;2023-04-25T10:02:18;19.70;76.60
20546;DHT22;10431;50.228;9.112;2023-04-25T10:04:54;19.70;76.70
20546;DHT22;10431;50.228;9.112;2023-04-25T10:07:36;19.60;76.80
20546;DHT22;10431;50.228;9.112;2023-04-25T10:10:07;19.60;77.00
20546;DHT22;10431;50.228;9.112;2023-04-25T10:12:33;19.60;77.10
20546;DHT22;10431;50.228;9.112;2023-04-25T10:15:00;19.50;77.20
20546;DHT22;10431;50.228;9.112;2023-04-25T10:17:27;19.50;77.40
20546;DHT22;10431;50.228;9.112;2023-04-25T10:19:56;19.50;77.50
20546;DHT22;10431;50.228;9.112;2023-04-25T10:22:35;19.40;77.60
20546;DHT22;10431;50.228;9.112;2023-04-25T10:25:03;19.40;77.90
20546;DHT22;10431;50.228;9.112;2023-04-25T10:27:30;19.40;78.00
20546;DHT22;10431;50.228;9.112;2023-04-25T10:30:07;19.30;78.10
20546;DHT22;10431;50.228;9.112;2023-04-25T10:32:36;19.30;78.20
20546;DHT22;10431;50.228;9.112;2023-04-25T10:35:13;19.30;79.10
20546;DHT22;10431;50.228;9.112;2023-04-25T10:40:22;19.30;78.60
20546;DHT22;10431;50.228;9.112;2023-04-25T10:42:49;19.20;78.70
20546;DHT22;10431;50.228;9.112;2023-04-25T10:45:17;19.20;78.80
20546;DHT22;10431;50.228;9.112;2023-04-25T10:47:44;19.20;78.80
20546;DHT22;10431;50.228;9.112;2023-04-25T10:50:17;19.20;78.90
20546;DHT22;10431;50.228;9.112;2023-04-25T10:52:43;19.20;78.90
20546;DHT22;10431;50.228;9.112;2023-04-25T10:55:12;19.20;79.70
20546;DHT22;10431;50.228;9.112;2023-04-25T10:57:45;19.20;79.00
20546;DHT22;10431;50.228;9.112;2023-04-25T11:00:15;19.20;79.10
20546;DHT22;10431;50.228;9.112;2023-04-25T11:02:52;19.20;79.20
20546;DHT22;10431;50.228;9.112;2023-04-25T11:05:35;19.20;79.50
20546;DHT22;10431;50.228;9.112;2023-04-25T11:08:02;19.20;79.80
20546;DHT22;10431;50.228;9.112;2023-04-25T11:10:33;19.20;80.00
20546;DHT22;10431;50.228;9.112;2023-04-25T11:13:03;19.20;80.60
20546;DHT22;10431;50.228;9.112;2023-04-25T11:15:29;19.20;80.90
20546;DHT22;10431;50.228;9.112;2023-04-25T11:17:55;19.20;81.10
20546;DHT22;10431;50.228;9.112;2023-04-25T11:20:25;19.20;81.20
20546;DHT22;10431;50.228;9.112;2023-04-25T11:22:57;19.20;81.40
20546;DHT22;10431;50.228;9.112;2023-04-25T11:25:25;19.20;81.80
20546;DHT22;10431;50.228;9.112;2023-04-25T11:27:56;19.20;81.60
20546;DHT22;10431;50.228;9.112;2023-04-25T11:30:24;19.30;81.70
20546;DHT22;10431;50.228;9.112;2023-04-25T11:32:51;19.30;82.00
20546;DHT22;10431;50.228;9.112;2023-04-25T11:35:18;19.40;82.10
20546;DHT22;10431;50.228;9.112;2023-04-25T11:37:45;19.40;82.00
20546;DHT22;10431;50.228;9.112;2023-04-25T11:40:11;19.30;82.10
20546;DHT22;10431;50.228;9.112;2023-04-25T11:42:45;19.30;82.20
20546;DHT22;10431;50.228;9.112;2023-04-25T11:45:12;19.30;82.30
20546;DHT22;10431;50.228;9.112;2023-04-25T11:47:39;19.30;82.30
20546;DHT22;10431;50.228;9.112;2023-04-25T11:50:07;19.20;82.30
20546;DHT22;10431;50.228;9.112;2023-04-25T11:55:14;19.20;82.90
20546;DHT22;10431;50.228;9.112;2023-04-25T11:57:42;19.10;82.50
20546;DHT22;10431;50.228;9.112;2023-04-25T12:00:13;19.10;82.40
20546;DHT22;10431;50.228;9.112;2023-04-25T12:02:44;19.20;82.70
20546;DHT22;10431;50.228;9.112;2023-04-25T12:05:11;19.20;82.60
20546;DHT22;10431;50.228;9.112;2023-04-25T12:07:38;19.20;82.70
20546;DHT22;10431;50.228;9.112;2023-04-25T12:10:09;19.30;82.70
20546;DHT22;10431;50.228;9.112;2023-04-25T12:12:36;19.30;82.70
20546;DHT22;10431;50.228;9.112;2023-04-25T12:15:12;19.30;82.50
20546;DHT22;10431;50.228;9.112;2023-04-25T12:17:41;19.20;82.40
20546;DHT22;10431;50.228;9.112;2023-04-25T12:20:10;19.20;82.50
20546;DHT22;10431;50.228;9.112;2023-04-25T12:22:36;19.20;82.40
20546;DHT22;10431;50.228;9.112;2023-04-25T12:25:04;19.20;82.50
20546;DHT22;10431;50.228;9.112;2023-04-25T12:27:31;19.10;82.50
20546;DHT22;10431;50.228;9.112;2023-04-25T12:29:58;19.20;82.80
20546;DHT22;10431;50.228;9.112;2023-04-25T12:32:24;19.20;82.90
20546;DHT22;10431;50.228;9.112;2023-04-25T12:34:51;19.20;83.00
20546;DHT22;10431;50.228;9.112;2023-04-25T12:37:18;19.20;83.10
20546;DHT22;10431;50.228;9.112;2023-04-25T12:39:44;19.20;83.30
20546;DHT22;10431;50.228;9.112;2023-04-25T12:42:10;19.20;83.20
20546;DHT22;10431;50.228;9.112;2023-04-25T12:44:39;19.20;83.20
20546;DHT22;10431;50.228;9.112;2023-04-25T12:47:06;19.10;83.00
20546;DHT22;10431;50.228;9.112;2023-04-25T12:49:33;19.10;83.00
20546;DHT22;10431;50.228;9.112;2023-04-25T12:51:59;19.10;83.00
20546;DHT22;10431;50.228;9.112;2023-04-25T12:54:26;19.10;83.00
20546;DHT22;10431;50.228;9.112;2023-04-25T12:56:52;19.10;82.90
20546;DHT22;10431;50.228;9.112;2023-04-25T12:59:18;19.10;82.80
20546;DHT22;10431;50.228;9.112;2023-04-25T13:01:46;19.10;82.40
20546;DHT22;10431;50.228;9.112;2023-04-25T13:04:12;19.10;82.30
20546;DHT22;10431;50.228;9.112;2023-04-25T13:06:39;19.10;82.20
20546;DHT22;10431;50.228;9.112;2023-04-25T13:09:05;19.00;81.70
20546;DHT22;10431;50.228;9.112;2023-04-25T13:11:32;19.10;81.60
20546;DHT22;10431;50.228;9.112;2023-04-25T13:13:58;19.10;81.40
20546;DHT22;10431;50.228;9.112;2023-04-25T13:16:25;19.10;81.30
20546;DHT22;10431;50.228;9.112;2023-04-25T13:18:51;19.20;81.40
20546;DHT22;10431;50.228;9.112;2023-04-25T13:21:17;19.20;81.60
20546;DHT22;10431;50.228;9.112;2023-04-25T13:23:43;19.20;81.60
20546;DHT22;10431;50.228;9.112;2023-04-25T13:26:12;19.20;81.70
20546;DHT22;10431;50.228;9.112;2023-04-25T13:28:38;19.20;81.80
20546;DHT22;10431;50.228;9.112;2023-04-25T13:31:06;19.20;81.80
20546;DHT22;10431;50.228;9.112;2023-04-25T13:33:32;19.20;81.90
20546;DHT22;10431;50.228;9.112;2023-04-25T13:36:01;19.10;82.00
20546;DHT22;10431;50.228;9.112;2023-04-25T13:38:27;19.20;82.90
20546;DHT22;10431;50.228;9.112;2023-04-25T13:40:53;19.20;82.40
20546;DHT22;10431;50.228;9.112;2023-04-25T13:43:20;19.10;82.60
20546;DHT22;10431;50.228;9.112;2023-04-25T13:45:48;19.20;82.80
20546;DHT22;10431;50.228;9.112;2023-04-25T13:48:14;19.20;82.90
20546;DHT22;10431;50.228;9.112;2023-04-25T13:50:40;19.20;82.90
20546;DHT22;10431;50.228;9.112;2023-04-25T13:53:07;19.10;83.00
20546;DHT22;10431;50.228;9.112;2023-04-25T13:55:34;19.10;83.20
20546;DHT22;10431;50.228;9.112;2023-04-25T13:58:01;19.10;83.10
20546;DHT22;10431;50.228;9.112;2023-04-25T14:00:36;19.10;83.20
20546;DHT22;10431;50.228;9.112;2023-04-25T14:03:04;19.10;83.20
20546;DHT22;10431;50.228;9.112;2023-04-25T14:05:33;19.10;83.30
20546;DHT22;10431;50.228;9.112;2023-04-25T14:08:05;19.10;83.20
20546;DHT22;10431;50.228;9.112;2023-04-25T14:10:31;19.10;83.30
20546;DHT22;10431;50.228;9.112;2023-04-25T14:12:58;19.10;83.20
20546;DHT22;10431;50.228;9.112;2023-04-25T14:15:24;19.10;83.20
20546;DHT22;10431;50.228;9.112;2023-04-25T14:17:51;19.10;83.10
20546;DHT22;10431;50.228;9.112;2023-04-25T14:20:17;19.10;83.20
20546;DHT22;10431;50.228;9.112;2023-04-25T14:22:46;19.10;83.10
20546;DHT22;10431;50.228;9.112;2023-04-25T14:25:12;19.10;83.20
20546;DHT22;10431;50.228;9.112;2023-04-25T14:27:38;19.10;83.30
20546;DHT22;10431;50.228;9.112;2023-04-25T14:30:05;19.10;83.40
20546;DHT22;10431;50.228;9.112;2023-04-25T14:32:32;19.10;83.20
20546;DHT22;10431;50.228;9.112;2023-04-25T14:34:58;19.10;82.90
20546;DHT22;10431;50.228;9.112;2023-04-25T14:37:24;19.20;82.90
20546;DHT22;10431;50.228;9.112;2023-04-25T14:39:50;19.20;82.90
20546;DHT22;10431;50.228;9.112;2023-04-25T14:42:17;19.30;82.90
20546;DHT22;10431;50.228;9.112;2023-04-25T14:44:43;19.40;83.00
20546;DHT22;10431;50.228;9.112;2023-04-25T14:47:09;19.30;82.90
20546;DHT22;10431;50.228;9.112;2023-04-25T14:49:35;19.40;83.00
20546;DHT22;10431;50.228;9.112;2023-04-25T14:52:01;19.30;82.90
20546;DHT22;10431;50.228;9.112;2023-04-25T14:54:28;19.30;83.30
20546;DHT22;10431;50.228;9.112;2023-04-25T14:56:54;19.30;83.00
20546;DHT22;10431;50.228;9.112;2023-04-25T14:59:20;19.20;83.00
20546;DHT22;10431;50.228;9.112;2023-04-25T15:01:46;19.20;83.20
20546;DHT22;10431;50.228;9.112;2023-04-25T15:04:13;19.10;83.20
20546;DHT22;10431;50.228;9.112;2023-04-25T15:06:40;19.10;83.10
20546;DHT22;10431;50.228;9.112;2023-04-25T15:09:06;19.10;83.40
20546;DHT22;10431;50.228;9.112;2023-04-25T15:11:32;19.10;83.30
20546;DHT22;10431;50.228;9.112;2023-04-25T15:13:58;19.00;83.20
20546;DHT22;10431;50.228;9.112;2023-04-25T15:16:25;19.00;83.20
20546;DHT22;10431;50.228;9.112;2023-04-25T15:18:51;19.00;83.20
20546;DHT22;10431;50.228;9.112;2023-04-25T15:21:17;19.00;83.30
20546;DHT22;10431;50.228;9.112;2023-04-25T15:23:44;19.00;83.20
20546;DHT22;10431;50.228;9.112;2023-04-25T15:26:10;19.00;83.30
20546;DHT22;10431;50.228;9.112;2023-04-25T15:28:37;19.00;83.40
20546;DHT22;10431;50.228;9.112;2023-04-25T15:31:03;19.00;83.40
20546;DHT22;10431;50.228;9.112;2023-04-25T15:33:29;19.10;83.50
20546;DHT22;10431;50.228;9.112;2023-04-25T15:35:55;19.00;83.50
20546;DHT22;10431;50.228;9.112;2023-04-25T15:38:23;19.00;83.50
20546;DHT22;10431;50.228;9.112;2023-04-25T15:40:51;19.10;83.60
20546;DHT22;10431;50.228;9.112;2023-04-25T15:43:18;19.10;83.60
20546;DHT22;10431;50.228;9.112;2023-04-25T15:45:44;19.00;83.60
20546;DHT22;10431;50.228;9.112;2023-04-25T15:48:10;19.10;83.60
20546;DHT22;10431;50.228;9.112;2023-04-25T15:50:37;19.10;83.70